Time;durP1;ratioP1;P1;durP2;ratioP2;P2;SDS_P1;SDS_P2;PMS_P1;PMS_P2;Temp;Humidity;BMP_temperature;BMP_pressure;BME280_temperature;BME280_humidity;BME280_pressure;Samples;Min_cycle;Max_cycle;Signal;HPM_P1;HPM_P2
2021/01/20 00:00:40;;;;;;;11.10;9.93;;;20.60;99.90;;;;;;5073831;28;20024;-59
2021/01/20 00:03:07;;;;;;;10.88;9.77;;;20.60;99.90;;;;;;5073677;28;20028;-57
2021/01/20 00:05:35;;;;;;;10.95;9.80;;;20.70;99.90;;;;;;5073359;28;20388;-58
2021/01/20 00:08:02;;;;;;;11.13;10.00;;;20.70;99.90;;;;;;5073303;28;20028;-58
2021/01/20 00:10:30;;;;;;;15.30;11.23;;;20.70;99.90;;;;;;5073381;28;20536;-59
2021/01/20 00:13:00;;;;;;;11.38;10.20;;;20.70;99.90;;;;;;5073486;28;20082;-57
2021/01/20 00:15:27;;;;;;;11.75;10.43;;;20.70;99.90;;;;;;5073640;28;20453;-60
2021/01/20 00:17:54;;;;;;;11.55;9.88;;;20.70;99.90;;;;;;5073473;28;20396;-58
2021/01/20 00:20:21;;;;;;;12.68;9.95;;;20.70;99.90;;;;;;5073360;28;20050;-61
2021/01/20 00:22:49;;;;;;;11.18;10.00;;;20.80;99.90;;;;;;5073120;28;20082;-61
2021/01/20 00:25:18;;;;;;;10.30;9.27;;;20.90;99.90;;;;;;5073246;28;20214;-61
2021/01/20 00:27:46;;;;;;;13.25;10.43;;;20.90;99.90;;;;;;5072995;28;20103;-60
2021/01/20 00:30:14;;;;;;;10.35;9.20;;;20.90;99.90;;;;;;5073263;28;20100;-60
2021/01/20 00:32:41;;;;;;;11.23;9.60;;;20.90;99.90;;;;;;5072697;28;20016;-60
2021/01/20 00:35:11;;;;;;;12.77;10.25;;;21.00;99.90;;;;;;5073386;28;20051;-65
2021/01/20 00:37:39;;;;;;;13.68;10.50;;;20.90;99.90;;;;;;5073174;28;20027;-65
2021/01/20 00:40:07;;;;;;;11.38;10.13;;;21.00;99.90;;;;;;5073196;28;20410;-63
2021/01/20 00:42:35;;;;;;;11.00;9.95;;;21.00;99.90;;;;;;5072881;28;20028;-59
2021/01/20 00:45:03;;;;;;;13.27;10.55;;;21.10;99.90;;;;;;5073421;28;20108;-61
2021/01/20 00:47:30;;;;;;;11.98;10.02;;;21.20;99.90;;;;;;5072845;28;20048;-60
2021/01/20 00:49:58;;;;;;;10.85;9.73;;;21.20;99.90;;;;;;5075495;28;20100;-60
2021/01/20 00:52:25;;;;;;;11.88;10.73;;;21.30;99.90;;;;;;5076936;28;20147;-60
2021/01/20 00:54:52;;;;;;;11.48;10.38;;;21.40;99.90;;;;;;5076282;28;20021;-60
2021/01/20 00:57:20;;;;;;;13.30;10.48;;;21.30;99.90;;;;;;5076287;28;20504;-64
2021/01/20 00:59:47;;;;;;;17.55;11.15;;;21.40;99.90;;;;;;5076208;28;20107;-61
2021/01/20 01:02:14;;;;;;;11.07;9.98;;;21.40;99.90;;;;;;5076226;28;20024;-60
2021/01/20 01:04:42;;;;;;;11.50;10.35;;;21.40;99.90;;;;;;5076682;28;20029;-61
2021/01/20 01:07:09;;;;;;;11.77;10.02;;;21.50;99.90;;;;;;5076257;28;20127;-60
2021/01/20 01:09:37;;;;;;;11.45;10.20;;;21.60;99.90;;;;;;5076464;28;20078;-60
2021/01/20 01:12:05;;;;;;;13.45;11.18;;;21.60;99.90;;;;;;5076406;28;20017;-60
2021/01/20 01:14:32;;;;;;;12.20;10.82;;;21.70;99.90;;;;;;5076133;28;20032;-60
2021/01/20 01:16:59;;;;;;;51.88;17.38;;;21.80;99.90;;;;;;5076210;28;20028;-60
2021/01/20 01:19:27;;;;;;;58.40;16.42;;;21.90;99.90;;;;;;5076392;28;20027;-60
2021/01/20 01:21:54;;;;;;;15.15;10.90;;;22.00;99.90;;;;;;5076174;28;20024;-60
2021/01/20 01:24:21;;;;;;;53.13;17.25;;;22.00;99.90;;;;;;5076251;28;20044;-60
2021/01/20 01:26:48;;;;;;;13.50;10.35;;;22.00;99.90;;;;;;5075999;28;20025;-61
2021/01/20 01:29:16;;;;;;;11.88;10.52;;;22.00;99.90;;;;;;5075675;28;20131;-61
2021/01/20 01:31:43;;;;;;;17.55;11.52;;;21.90;99.90;;;;;;5076047;28;20016;-61
2021/01/20 01:34:10;;;;;;;26.77;13.88;;;22.00;99.90;;;;;;5075998;28;20078;-61
2021/01/20 01:36:38;;;;;;;18.13;11.10;;;22.20;99.90;;;;;;5076030;28;20024;-61
2021/01/20 01:39:06;;;;;;;14.82;10.30;;;22.20;99.90;;;;;;5075647;28;20081;-61
2021/01/20 01:41:33;;;;;;;15.50;10.02;;;22.30;99.90;;;;;;5076128;28;20334;-61
2021/01/20 01:44:00;;;;;;;14.60;10.88;;;22.20;99.90;;;;;;5076371;28;20040;-61
2021/01/20 01:46:28;;;;;;;11.77;10.60;;;22.20;99.90;;;;;;5075686;28;20028;-63
2021/01/20 01:48:55;;;;;;;12.57;10.63;;;22.00;99.90;;;;;;5057985;28;20107;-60
2021/01/20 01:51:26;;;;;;;11.98;10.40;;;21.90;99.90;;;;;;5075837;28;20017;-64
2021/01/20 01:53:53;;;;;;;;;;;22.00;99.90;;;;;;5076369;28;20055;-64
2021/01/20 01:56:24;;;;;;;13.68;10.10;;;22.20;99.90;;;;;;5075783;28;19912;-69
2021/01/20 01:58:53;;;;;;;12.82;10.20;;;22.10;99.90;;;;;;5075668;28;20074;-69
2021/01/20 02:01:20;;;;;;;18.83;10.13;;;22.10;99.90;;;;;;5074248;28;20028;-68
2021/01/20 02:03:51;;;;;;;11.48;9.98;;;22.10;99.90;;;;;;5075910;28;20028;-69
2021/01/20 02:06:19;;;;;;;11.63;10.35;;;22.10;99.90;;;;;;5075258;28;20511;-70
2021/01/20 02:08:52;;;;;;;10.95;9.80;;;22.10;99.90;;;;;;5075713;28;20492;-69
2021/01/20 02:11:33;;;;;;;12.32;10.77;;;22.20;99.90;;;;;;5075468;28;20059;-69
2021/01/20 02:14:26;;;;;;;11.70;10.32;;;22.20;99.90;;;;;;5075527;28;20476;-70
2021/01/20 02:17:22;;;;;;;11.20;10.20;;;22.20;99.90;;;;;;5075403;28;20082;-69
2021/01/20 02:20:32;;;;;;;13.05;10.05;;;22.10;99.90;;;;;;5067001;28;20036;-69
2021/01/20 02:23:07;;;;;;;11.65;9.82;;;22.10;99.90;;;;;;5067278;28;20036;-70
2021/01/20 02:25:57;;;;;;;10.70;9.73;;;22.10;99.90;;;;;;5073855;28;20476;-70
2021/01/20 02:29:06;;;;;;;10.73;9.65;;;22.10;99.90;;;;;;5075184;28;20032;-62
2021/01/20 02:31:34;;;;;;;13.38;9.60;;;22.30;99.90;;;;;;5045678;28;20034;-64
2021/01/20 02:34:10;;;;;;;10.77;9.02;;;22.30;99.90;;;;;;5075008;28;20020;-65
2021/01/20 02:36:38;;;;;;;77.95;20.50;;;22.40;99.90;;;;;;5074862;28;20028;-65
2021/01/20 02:39:07;;;;;;;15.20;10.05;;;22.40;99.90;;;;;;5074992;28;20059;-63
2021/01/20 02:41:35;;;;;;;12.30;9.25;;;22.50;99.90;;;;;;5075111;28;20070;-66
2021/01/20 02:44:04;;;;;;;20.70;11.38;;;22.50;99.90;;;;;;5074581;28;20029;-66
2021/01/20 02:46:32;;;;;;;15.20;10.18;;;22.60;99.90;;;;;;5074654;28;20396;-67
2021/01/20 02:49:00;;;;;;;12.27;9.90;;;22.60;99.90;;;;;;5074523;28;20108;-63
2021/01/20 02:52:04;;;;;;;12.18;9.68;;;22.70;99.90;;;;;;5074468;28;20062;-63
2021/01/20 02:54:33;;;;;;;15.45;10.43;;;22.90;99.90;;;;;;5074463;28;20024;-63
2021/01/20 02:57:01;;;;;;;19.25;11.25;;;22.90;99.90;;;;;;5074321;28;20103;-62
2021/01/20 02:59:30;;;;;;;114.72;22.02;;;23.10;99.90;;;;;;5074337;28;20035;-59
2021/01/20 03:02:02;;;;;;;23.75;11.52;;;23.10;99.90;;;;;;5074065;28;20485;-60
2021/01/20 03:04:32;;;;;;;36.15;13.77;;;23.20;99.90;;;;;;5074080;28;20424;-52
2021/01/20 03:07:01;;;;;;;15.65;9.82;;;23.40;99.90;;;;;;5073707;28;20166;-58
2021/01/20 03:09:28;;;;;;;17.65;10.85;;;23.40;99.90;;;;;;5074004;28;20027;-60
2021/01/20 03:11:56;;;;;;;13.10;9.80;;;23.40;99.90;;;;;;5073095;28;20024;-59
2021/01/20 03:14:25;;;;;;;16.38;10.23;;;23.40;99.90;;;;;;5073783;28;20013;-61
2021/01/20 03:16:53;;;;;;;12.68;9.77;;;23.40;99.90;;;;;;5073797;28;20078;-57
2021/01/20 03:19:20;;;;;;;23.02;11.60;;;23.20;99.90;;;;;;5073798;28;20020;-61
2021/01/20 03:21:48;;;;;;;16.75;10.25;;;23.30;99.90;;;;;;5073598;28;20029;-59
2021/01/20 03:24:15;;;;;;;16.75;9.57;;;23.40;99.90;;;;;;5074293;28;20025;-63
2021/01/20 03:26:42;;;;;;;11.30;9.32;;;23.40;99.90;;;;;;5073470;28;20024;-59
2021/01/20 03:29:10;;;;;;;9.43;8.35;;;23.30;99.90;;;;;;5073876;28;20396;-59
2021/01/20 03:31:37;;;;;;;13.77;9.00;;;23.30;99.90;;;;;;5073483;28;20048;-60
2021/01/20 03:34:04;;;;;;;11.40;9.40;;;23.30;99.90;;;;;;5073775;28;20416;-60
2021/01/20 03:36:32;;;;;;;10.98;9.80;;;23.40;99.90;;;;;;5073315;28;20081;-60
2021/01/20 03:38:59;;;;;;;18.38;10.60;;;23.40;99.90;;;;;;5073243;28;20070;-60
2021/01/20 03:41:26;;;;;;;10.52;9.43;;;23.60;99.90;;;;;;5073312;28;20020;-53
2021/01/20 03:43:54;;;;;;;14.85;9.35;;;23.60;99.90;;;;;;5073236;28;20100;-51
2021/01/20 03:46:21;;;;;;;11.43;9.82;;;23.80;99.90;;;;;;5073150;28;20044;-60
2021/01/20 03:48:48;;;;;;;14.18;9.68;;;23.90;99.90;;;;;;5073157;28;20040;-63
2021/01/20 03:51:16;;;;;;;18.27;10.18;;;23.90;99.90;;;;;;5073107;28;20095;-57
2021/01/20 03:53:43;;;;;;;34.10;12.15;;;23.90;99.90;;;;;;5073315;28;20492;-58
2021/01/20 03:56:10;;;;;;;24.75;9.93;;;23.90;99.90;;;;;;5073606;28;20067;-58
2021/01/20 03:58:37;;;;;;;12.85;9.68;;;24.20;99.90;;;;;;5073383;28;20025;-60
2021/01/20 04:01:05;;;;;;;17.98;10.00;;;24.50;99.90;;;;;;5073572;28;20027;-57
2021/01/20 04:03:32;;;;;;;10.45;9.20;;;25.00;99.90;;;;;;5073577;28;20521;-60
2021/01/20 04:05:59;;;;;;;11.40;8.90;;;24.90;99.90;;;;;;5072201;28;20071;-62
2021/01/20 04:08:27;;;;;;;9.93;8.52;;;24.40;99.90;;;;;;5073568;28;20518;-58
2021/01/20 04:10:54;;;;;;;11.60;9.30;;;24.10;99.90;;;;;;5073049;28;20031;-57
2021/01/20 04:13:23;;;;;;;12.10;9.10;;;23.80;99.90;;;;;;5073425;28;20025;-54
2021/01/20 04:15:50;;;;;;;8.90;8.23;;;23.70;99.90;;;;;;5073396;28;20529;-50
2021/01/20 04:18:18;;;;;;;9.85;8.85;;;23.60;99.90;;;;;;5073632;28;20349;-55
2021/01/20 04:20:47;;;;;;;12.57;9.07;;;23.50;99.90;;;;;;5073463;28;20024;-54
2021/01/20 04:23:14;;;;;;;10.60;9.50;;;23.50;99.90;;;;;;5074511;28;20099;-64
2021/01/20 04:25:42;;;;;;;11.93;9.38;;;23.60;99.90;;;;;;5077536;28;20028;-55
2021/01/20 04:28:09;;;;;;;10.68;9.48;;;23.70;99.90;;;;;;5077457;28;20028;-59
2021/01/20 04:30:36;;;;;;;10.02;9.00;;;23.50;99.90;;;;;;5077352;28;20503;-62
2021/01/20 04:33:04;;;;;;;12.13;9.13;;;23.60;99.90;;;;;;5075821;28;20025;-56
2021/01/20 04:35:31;;;;;;;10.77;8.63;;;23.50;99.90;;;;;;5077095;28;20059;-59
2021/01/20 04:37:58;;;;;;;12.30;8.98;;;23.40;99.90;;;;;;5077189;28;20021;-61
2021/01/20 04:40:26;;;;;;;9.88;8.93;;;23.30;99.90;;;;;;5077195;28;20073;-59
2021/01/20 04:42:55;;;;;;;9.95;8.70;;;23.40;99.90;;;;;;5077086;28;20063;-57
2021/01/20 04:45:23;;;;;;;11.45;8.98;;;23.30;99.90;;;;;;5075547;28;20477;-59
2021/01/20 04:47:54;;;;;;;10.07;8.73;;;23.10;99.90;;;;;;5076926;28;20473;-69
2021/01/20 04:50:21;;;;;;;9.55;8.77;;;23.20;99.90;;;;;;5076884;28;20376;-63
2021/01/20 04:52:51;;;;;;;12.18;9.82;;;23.30;99.90;;;;;;5076971;28;20155;-61
2021/01/20 04:55:20;;;;;;;22.70;11.63;;;23.30;99.90;;;;;;5077186;28;20492;-58
2021/01/20 04:57:48;;;;;;;12.43;9.70;;;23.30;99.90;;;;;;5075661;28;20500;-58
2021/01/20 05:00:16;;;;;;;11.98;9.60;;;23.30;99.90;;;;;;5076732;28;20035;-64
2021/01/20 05:02:43;;;;;;;19.67;11.98;;;23.30;99.90;;;;;;5076577;28;20031;-59
2021/01/20 05:05:15;;;;;;;14.65;9.02;;;23.30;99.90;;;;;;5076611;28;20078;-57
2021/01/20 05:07:42;;;;;;;20.13;10.93;;;23.30;99.90;;;;;;5076498;28;20076;-53
2021/01/20 05:10:10;;;;;;;13.73;9.77;;;23.50;99.90;;;;;;5076770;28;20024;-55
2021/01/20 05:12:42;;;;;;;12.88;10.35;;;23.50;99.90;;;;;;5076741;28;20025;-60
2021/01/20 05:15:11;;;;;;;16.00;12.20;;;23.60;99.90;;;;;;5076634;28;20025;-68
2021/01/20 05:18:02;;;;;;;13.48;11.15;;;23.80;99.90;;;;;;5076462;28;20036;-66
2021/01/20 05:20:34;;;;;;;11.30;10.23;;;23.80;99.90;;;;;;5076413;28;20047;-60
2021/01/20 05:23:04;;;;;;;13.55;10.05;;;23.80;99.90;;;;;;5076541;28;20354;-66
2021/01/20 05:25:43;;;;;;;23.40;14.38;;;23.50;99.90;;;;;;5076520;28;20029;-71
2021/01/20 05:28:17;;;;;;;17.27;12.23;;;23.40;99.90;;;;;;5076222;28;20032;-63
2021/01/20 05:30:59;;;;;;;21.70;14.45;;;23.50;99.90;;;;;;5076403;28;20060;-64
2021/01/20 05:33:28;;;;;;;13.18;9.73;;;23.60;99.90;;;;;;5076341;28;20016;-64
2021/01/20 05:36:12;;;;;;;11.57;10.23;;;23.70;99.90;;;;;;5075625;28;20051;-62
2021/01/20 05:38:44;;;;;;;11.73;9.63;;;23.80;99.90;;;;;;5076259;28;20028;-62
2021/01/20 05:41:29;;;;;;;11.82;10.60;;;24.00;99.90;;;;;;5076108;28;20031;-61
2021/01/20 05:44:06;;;;;;;11.18;10.05;;;24.00;99.90;;;;;;5076229;28;20020;-61
2021/01/20 05:46:35;;;;;;;9.48;8.70;;;23.90;99.90;;;;;;5076071;28;20361;-61
2021/01/20 05:49:04;;;;;;;9.35;8.45;;;23.70;99.90;;;;;;5075620;28;20070;-61
2021/01/20 05:51:42;;;;;;;10.10;9.20;;;23.70;99.90;;;;;;5075554;28;20091;-61
2021/01/20 05:54:11;;;;;;;10.48;9.30;;;23.70;99.90;;;;;;5075739;28;20112;-61
2021/01/20 05:56:39;;;;;;;13.95;9.13;;;23.50;99.90;;;;;;5075569;28;20425;-61
2021/01/20 05:59:12;;;;;;;10.50;8.80;;;23.40;99.90;;;;;;5075799;28;20023;-61
2021/01/20 06:01:41;;;;;;;10.82;9.40;;;23.30;99.90;;;;;;5075776;28;20406;-61
2021/01/20 06:04:09;;;;;;;10.15;9.15;;;23.20;99.90;;;;;;5075803;28;20079;-61
2021/01/20 06:06:38;;;;;;;10.13;8.20;;;23.10;99.90;;;;;;5075541;28;20070;-61
2021/01/20 06:09:07;;;;;;;10.32;9.07;;;22.90;99.90;;;;;;5075609;28;20468;-61
2021/01/20 06:11:34;;;;;;;10.23;9.25;;;23.00;99.90;;;;;;5075410;28;20103;-61
2021/01/20 06:14:02;;;;;;;8.82;7.90;;;22.90;99.90;;;;;;5075542;28;20024;-61
2021/01/20 06:16:36;;;;;;;9.75;8.88;;;22.90;99.90;;;;;;5075738;28;20112;-61
2021/01/20 06:19:09;;;;;;;10.60;9.52;;;23.00;99.90;;;;;;5075204;28;20028;-61
2021/01/20 06:21:36;;;;;;;15.15;9.55;;;23.00;99.90;;;;;;5075934;28;20103;-61
2021/01/20 06:24:28;;;;;;;10.10;8.70;;;22.90;99.90;;;;;;5075366;28;20025;-61
2021/01/20 06:27:01;;;;;;;10.68;9.68;;;22.80;99.90;;;;;;5075104;28;20047;-61
2021/01/20 06:29:32;;;;;;;12.05;9.07;;;22.80;99.90;;;;;;5075149;28;20032;-61
2021/01/20 06:32:01;;;;;;;10.02;8.45;;;22.70;99.90;;;;;;5075314;28;20063;-61
2021/01/20 06:34:29;;;;;;;10.75;9.65;;;22.70;99.90;;;;;;5075255;28;20358;-60
2021/01/20 06:36:56;;;;;;;10.07;9.18;;;22.60;99.90;;;;;;5074721;28;20032;-62
2021/01/20 06:39:29;;;;;;;10.82;8.35;;;22.50;99.90;;;;;;5074942;28;20025;-61
2021/01/20 06:41:58;;;;;;;12.07;9.80;;;22.50;99.90;;;;;;5074719;28;20032;-61
2021/01/20 06:44:26;;;;;;;11.30;9.63;;;22.60;99.90;;;;;;5074400;28;20504;-64
2021/01/20 06:46:56;;;;;;;10.30;9.15;;;22.70;99.90;;;;;;5073122;28;20469;-61
2021/01/20 06:49:29;;;;;;;9.38;8.38;;;22.70;99.90;;;;;;5074312;28;20032;-62
2021/01/20 06:52:15;;;;;;;10.75;9.65;;;22.70;99.90;;;;;;5074142;28;20025;-62
2021/01/20 06:54:45;;;;;;;9.88;8.93;;;22.80;99.90;;;;;;5074165;28;20016;-66
2021/01/20 06:57:27;;;;;;;9.97;8.03;;;22.90;99.90;;;;;;5074031;28;20489;-64
2021/01/20 07:00:12;;;;;;;9.85;8.57;;;23.00;99.90;;;;;;5074347;28;20029;-71
2021/01/20 07:03:01;;;;;;;10.55;8.25;;;23.10;99.90;;;;;;5074231;28;20044;-63
2021/01/20 07:05:37;;;;;;;15.48;8.95;;;23.10;99.90;;;;;;5073931;28;20033;-63
2021/01/20 07:08:06;;;;;;;13.10;9.20;;;23.10;99.90;;;;;;5073632;28;20063;-61
2021/01/20 07:11:02;;;;;;;9.95;8.98;;;23.10;99.90;;;;;;5074037;28;20381;-60
2021/01/20 07:13:34;;;;;;;10.55;8.40;;;23.10;99.90;;;;;;5073622;28;20112;-65
2021/01/20 07:16:04;;;;;;;9.75;8.77;;;23.20;99.90;;;;;;5073625;28;20476;-64
2021/01/20 07:18:32;;;;;;;10.15;8.93;;;23.50;99.90;;;;;;5073997;28;20024;-59
2021/01/20 07:20:59;;;;;;;9.63;8.65;;;24.40;99.90;;;;;;5073592;28;20032;-63
2021/01/20 07:23:27;;;;;;;11.35;7.85;;;24.90;99.90;;;;;;5073519;28;20027;-66
2021/01/20 07:25:55;;;;;;;9.02;8.35;;;25.50;99.30;;;;;;5073478;28;20390;-63
2021/01/20 07:28:23;;;;;;;8.73;7.88;;;25.90;99.30;;;;;;5073396;28;20021;-65
2021/01/20 07:31:03;;;;;;;12.35;8.00;;;26.50;98.40;;;;;;5073628;28;20400;-63
2021/01/20 07:33:31;;;;;;;9.80;8.82;;;26.50;98.10;;;;;;5073501;28;20044;-64
2021/01/20 07:36:08;;;;;;;10.02;9.02;;;26.60;97.40;;;;;;5073337;28;20469;-62
2021/01/20 07:38:36;;;;;;;10.10;9.05;;;26.00;98.30;;;;;;5073366;28;20020;-67
2021/01/20 07:41:18;;;;;;;13.13;10.18;;;26.10;98.50;;;;;;5073231;28;20024;-64
2021/01/20 07:43:46;;;;;;;10.10;9.20;;;25.90;98.40;;;;;;5073236;28;20072;-63
2021/01/20 07:46:22;;;;;;;9.98;9.02;;;25.20;98.50;;;;;;5073324;28;20029;-64
2021/01/20 07:48:50;;;;;;;9.77;8.80;;;24.40;99.40;;;;;;5073085;28;20020;-64
2021/01/20 07:51:22;;;;;;;9.88;8.82;;;23.50;99.90;;;;;;5073063;28;20372;-64
2021/01/20 07:54:03;;;;;;;10.10;8.52;;;23.20;99.90;;;;;;5073076;28;20108;-64
2021/01/20 07:56:32;;;;;;;10.38;9.38;;;22.70;99.90;;;;;;5073094;28;20020;-64
2021/01/20 07:59:16;;;;;;;9.48;8.32;;;22.40;99.90;;;;;;5072741;28;20021;-66
2021/01/20 08:01:44;;;;;;;9.18;8.25;;;22.30;99.90;;;;;;5072993;28;20025;-65
2021/01/20 08:04:22;;;;;;;13.93;7.90;;;22.30;99.90;;;;;;5072888;28;20052;-67
2021/01/20 08:06:50;;;;;;;13.13;8.98;;;22.30;99.90;;;;;;5072687;28;20045;-65
2021/01/20 08:09:21;;;;;;;9.13;8.20;;;22.20;99.90;;;;;;5072966;28;20412;-66
2021/01/20 08:11:49;;;;;;;9.43;8.63;;;22.50;99.90;;;;;;5071593;28;20078;-65
2021/01/20 08:14:18;;;;;;;9.77;8.77;;;22.40;99.90;;;;;;5072847;28;20510;-65
2021/01/20 08:16:45;;;;;;;9.43;8.43;;;22.30;99.90;;;;;;5072938;28;20056;-65
2021/01/20 08:19:13;;;;;;;9.85;9.10;;;22.30;99.90;;;;;;5072925;28;20028;-67
2021/01/20 08:21:40;;;;;;;12.65;9.40;;;;;;;;;;5072791;28;20460;-65
2021/01/20 08:24:08;;;;;;;10.60;9.50;;;;;;;;;;5072866;28;20024;-66
2021/01/20 08:26:35;;;;;;;10.93;9.65;;;;;;;;;;5072772;28;20111;-66
2021/01/20 08:29:04;;;;;;;14.27;10.10;;;;;;;;;;5072929;28;20409;-65
2021/01/20 08:31:31;;;;;;;9.73;8.75;;;;;;;;;;5071647;28;20029;-66
2021/01/20 08:34:16;;;;;;;11.95;8.90;;;;;;;;;;5072564;28;20028;-66
2021/01/20 08:36:53;;;;;;;14.68;8.85;;;;;;;;;;5072985;28;20048;-66
2021/01/20 08:39:20;;;;;;;8.80;8.00;;;;;;;;;;5072830;28;20017;-66
2021/01/20 08:42:05;;;;;;;10.15;9.15;;;;;;;;;;5072954;28;20021;-66
2021/01/20 08:44:32;;;;;;;15.23;8.65;;;;;;;;;;5072686;28;20021;-66
2021/01/20 08:47:00;;;;;;;10.00;8.80;;;;;;;;;;5072697;28;20477;-67
2021/01/20 08:49:27;;;;;;;11.07;8.90;;;;;;;;;;5072555;28;20499;-66
2021/01/20 08:51:57;;;;;;;11.02;9.88;;;;;;;;;;5072616;28;20047;-66
2021/01/20 08:54:25;;;;;;;10.40;9.35;;;;;;;;;;5071169;28;20021;-66
2021/01/20 08:56:53;;;;;;;9.77;8.90;;;;;;;;;;5072614;28;20025;-67
2021/01/20 08:59:21;;;;;;;10.18;9.13;;;;;;;;;;5072658;28;20131;-66
2021/01/20 09:01:48;;;;;;;10.88;9.82;;;;;;;;;;5072272;28;20032;-66
2021/01/20 09:04:15;;;;;;;11.07;9.98;;;;;;;;;;5072330;28;20021;-67
2021/01/20 09:06:42;;;;;;;12.30;9.60;;;;;;;;;;5072018;28;20101;-66
2021/01/20 09:09:10;;;;;;;11.98;10.52;;;;;;;;;;5072464;28;20129;-67
2021/01/20 09:11:40;;;;;;;11.20;9.40;;;;;;;;;;5075483;28;20025;-66
2021/01/20 09:14:07;;;;;;;14.07;10.00;;;;;;;;;;5075821;28;20031;-65
2021/01/20 09:16:34;;;;;;;15.52;11.30;;;;;;;;;;5075726;28;20078;-65
2021/01/20 09:19:02;;;;;;;10.88;9.93;;;;;;;;;;5075617;28;20029;-66
2021/01/20 09:21:29;;;;;;;15.40;11.38;;;;;;;;;;5075606;28;20129;-66
2021/01/20 09:23:56;;;;;;;15.65;11.20;;;;;;;;;;5075615;28;20021;-66
2021/01/20 09:26:23;;;;;;;11.82;10.75;;;;;;;;;;5075535;28;20074;-66
2021/01/20 09:28:50;;;;;;;11.82;10.63;;;;;;;;;;5075768;28;20082;-66
2021/01/20 09:31:18;;;;;;;12.40;10.85;;;;;;;;;;5075458;28;20107;-66
2021/01/20 09:33:45;;;;;;;13.13;11.85;;;;;;;;;;5075538;28;20024;-66
2021/01/20 09:36:12;;;;;;;12.48;11.27;;;;;;;;;;5075646;28;20032;-67
2021/01/20 09:38:39;;;;;;;12.45;11.15;;;;;;;;;;5075409;28;20525;-66
2021/01/20 09:41:06;;;;;;;11.77;10.57;;;;;;;;;;5075392;28;20154;-68
2021/01/20 09:43:33;;;;;;;11.65;10.60;;;;;;;;;;5075455;28;20071;-66
2021/01/20 09:46:00;;;;;;;11.95;10.52;;;;;;;;;;5075474;28;20469;-66
2021/01/20 09:48:27;;;;;;;10.65;9.68;;;;;;;;;;5075334;28;20020;-67
2021/01/20 09:50:55;;;;;;;10.68;9.38;;;;;;;;;;5075430;28;20043;-69
2021/01/20 09:53:22;;;;;;;11.15;10.02;;;;;;;;;;5075289;28;20020;-68
2021/01/20 09:55:49;;;;;;;12.77;9.65;;;;;;;;;;5075289;28;20392;-67
2021/01/20 09:58:16;;;;;;;16.67;10.57;;;;;;;;;;5075274;28;20017;-68
2021/01/20 10:00:43;;;;;;;11.52;10.43;;;;;;;;;;5075178;28;20074;-66
2021/01/20 10:03:10;;;;;;;12.98;10.27;;;;;;;;;;5075200;28;20051;-65
2021/01/20 10:05:38;;;;;;;11.52;10.25;;;;;;;;;;5075052;28;20032;-64
2021/01/20 10:08:05;;;;;;;11.93;10.40;;;;;;;;;;5075062;28;20028;-64
2021/01/20 10:10:32;;;;;;;11.82;10.60;;;;;;;;;;5075035;28;20033;-64
2021/01/20 10:12:59;;;;;;;13.07;10.20;;;;;;;;;;5074962;28;20029;-65
2021/01/20 10:15:26;;;;;;;11.15;10.07;;;;;;;;;;5075260;28;20016;-64
2021/01/20 10:17:53;;;;;;;11.35;10.25;;;;;;;;;;5075069;28;20029;-63
2021/01/20 10:20:21;;;;;;;15.00;10.43;;;;;;;;;;5074848;28;20052;-63
2021/01/20 10:22:49;;;;;;;13.32;10.30;;;;;;;;;;5074672;28;20505;-63
2021/01/20 10:25:16;;;;;;;12.73;10.88;;;;;;;;;;5074940;28;20031;-63
2021/01/20 10:27:43;;;;;;;11.93;10.73;;;;;;;;;;5074570;28;20150;-64
2021/01/20 10:30:10;;;;;;;12.43;10.00;;;;;;;;;;5074650;28;20093;-64
2021/01/20 10:32:37;;;;;;;12.40;10.25;;;;;;;;;;5074509;28;20094;-64
2021/01/20 10:35:08;;;;;;;19.88;10.73;;;;;;;;;;5074544;28;20020;-63
2021/01/20 10:37:35;;;;;;;;;;;;;;;;;;5075084;28;20027;-64
2021/01/20 10:40:02;;;;;;;13.90;10.18;;;;;;;;;;5074459;28;19908;-63
2021/01/20 10:42:29;;;;;;;12.82;10.18;;;;;;;;;;5074374;28;20029;-63
2021/01/20 10:44:56;;;;;;;11.60;10.40;;;;;;;;;;5074417;28;20066;-64
2021/01/20 10:47:23;;;;;;;15.13;10.43;;;;;;;;;;5074243;28;20024;-64
2021/01/20 10:49:50;;;;;;;12.50;10.23;;;;;;;;;;5074353;28;20020;-62
2021/01/20 10:52:17;;;;;;;10.93;9.85;;;;;;;;;;5074291;28;20025;-64
2021/01/20 10:54:44;;;;;;;14.18;10.43;;;;;;;;;;5074199;28;20020;-64
2021/01/20 10:57:12;;;;;;;13.90;10.40;;;;;;;;;;5074127;28;20046;-64
2021/01/20 10:59:41;;;;;;;15.93;10.55;;;;;;;;;;5074140;28;20055;-64
2021/01/20 11:02:09;;;;;;;11.48;10.48;;;;;;;;;;5074171;28;20100;-64
2021/01/20 11:04:36;;;;;;;12.45;11.18;;;;;;;;;;5073976;28;20032;-64
2021/01/20 11:07:04;;;;;;;13.48;10.43;;;;;;;;;;5073638;28;20489;-64
2021/01/20 11:09:31;;;;;;;12.90;10.95;;;;;;;;;;5073991;28;20211;-64
2021/01/20 11:11:58;;;;;;;13.75;11.48;;;;;;;;;;5073793;28;20023;-64
2021/01/20 11:14:29;;;;;;;15.57;11.57;;;;;;;;;;5073744;28;20025;-63
2021/01/20 11:16:56;;;;;;;12.68;11.32;;;;;;;;;;5073649;28;20538;-64
2021/01/20 11:19:24;;;;;;;14.82;12.13;;;;;;;;;;5073888;28;20020;-64
2021/01/20 11:21:52;;;;;;;13.43;11.68;;;;;;;;;;5073656;28;20473;-64
2021/01/20 11:24:21;;;;;;;13.77;11.30;;;;;;;;;;5073810;28;20031;-64
2021/01/20 11:26:49;;;;;;;14.10;11.38;;;;;;;;;;5073297;28;20032;-64
2021/01/20 11:29:16;;;;;;;12.70;11.43;;;;;;;;;;5073728;28;20035;-67
2021/01/20 11:31:43;;;;;;;15.32;12.02;;;;;;;;;;5073478;28;20096;-64
2021/01/20 11:34:11;;;;;;;15.10;12.85;;;;;;;;;;5073300;28;20024;-64
2021/01/20 11:36:38;;;;;;;14.73;12.02;;;;;;;;;;5073367;28;20354;-65
2021/01/20 11:39:05;;;;;;;15.02;12.63;;;;;;;;;;5073372;28;20461;-65
2021/01/20 11:41:32;;;;;;;12.88;11.55;;;;;;;;;;5073393;28;20051;-65
2021/01/20 11:43:59;;;;;;;15.75;11.43;;;;;;;;;;5073432;28;20020;-65
2021/01/20 11:46:26;;;;;;;17.35;13.27;;;;;;;;;;5073370;28;20070;-63
2021/01/20 11:48:54;;;;;;;13.27;11.93;;;;;;;;;;5073406;28;20495;-64
2021/01/20 11:51:21;;;;;;;15.13;12.13;;;;;;;;;;5073223;28;20021;-63
2021/01/20 11:53:48;;;;;;;16.00;11.70;;;;;;;;;;5073170;28;20021;-63
2021/01/20 11:56:15;;;;;;;13.13;11.88;;;;;;;;;;5073183;28;20028;-63
2021/01/20 11:58:42;;;;;;;14.13;12.30;;;;;;;;;;5073172;28;20067;-63
2021/01/20 12:01:09;;;;;;;13.93;12.50;;;;;;;;;;5073185;28;20353;-64
2021/01/20 12:03:36;;;;;;;13.15;11.95;;;;;;;;;;5072968;28;20381;-64
2021/01/20 12:06:03;;;;;;;13.85;12.45;;;;;;;;;;5072889;28;20051;-63
2021/01/20 12:08:31;;;;;;;14.82;13.18;;;;;;;;;;5073214;28;20035;-63
2021/01/20 12:10:58;;;;;;;13.55;12.13;;;;;;;;;;5073077;28;20036;-64
2021/01/20 12:13:25;;;;;;;14.38;13.05;;;;;;;;;;5073019;28;20029;-64
2021/01/20 12:15:54;;;;;;;13.85;12.55;;;;;;;;;;5072984;28;20380;-64
2021/01/20 12:18:21;;;;;;;13.52;12.18;;;;;;;;;;5073055;28;20028;-64
2021/01/20 12:20:48;;;;;;;15.68;13.45;;;;;;;;;;5073024;28;20062;-64
2021/01/20 12:23:15;;;;;;;13.68;12.50;;;;;;;;;;5073131;28;20108;-64
2021/01/20 12:25:42;;;;;;;14.90;13.43;;;;;;;;;;5072817;28;20056;-63
2021/01/20 12:28:09;;;;;;;14.13;12.88;;;;;;;;;;5072839;28;20473;-64
2021/01/20 12:30:37;;;;;;;14.45;13.20;;;;;;;;;;5072880;28;20027;-64
2021/01/20 12:33:04;;;;;;;13.95;12.68;;;;;;;;;;5072772;28;20091;-64
2021/01/20 12:35:31;;;;;;;14.88;13.55;;;;;;;;;;5072791;28;20109;-64
2021/01/20 12:37:58;;;;;;;14.75;13.35;;;;;;;;;;5072803;28;20024;-63
2021/01/20 12:40:25;;;;;;;14.43;13.32;;;;;;;;;;5072723;28;20028;-63
2021/01/20 12:42:53;;;;;;;14.55;13.20;;;;;;;;;;5072753;28;20103;-64
2021/01/20 12:45:20;;;;;;;14.55;13.32;;;;;;;;;;5075810;28;20042;-64
2021/01/20 12:47:47;;;;;;;15.40;13.77;;;;;;;;;;5076783;28;20030;-64
2021/01/20 12:50:14;;;;;;;14.60;13.18;;;;;;;;;;5076705;28;20492;-64
2021/01/20 12:52:42;;;;;;;15.05;13.60;;;;;;;;;;5076493;28;20384;-64
2021/01/20 12:55:10;;;;;;;14.00;12.60;;;;;;;;;;5075245;28;20021;-64
2021/01/20 12:57:37;;;;;;;15.43;13.77;;;;;;;;;;5076824;28;20032;-64
2021/01/20 13:00:05;;;;;;;15.02;13.50;;;;;;;;;;5076413;28;20548;-63
2021/01/20 13:02:32;;;;;;;14.25;13.02;;;;;;;;;;5076326;28;20143;-70
2021/01/20 13:04:59;;;;;;;16.33;14.57;;;;;;;;;;5076264;28;20100;-64
2021/01/20 13:07:26;;;;;;;14.93;13.60;;;;;;;;;;5075915;28;20051;-63
2021/01/20 13:09:57;;;;;;;17.45;14.30;;;;;;;;;;5076163;28;20024;-63
2021/01/20 13:12:23;;;;;;;;;;;;;;;;;;5076468;28;20021;-64
2021/01/20 13:14:51;;;;;;;14.38;13.18;;;;;;;;;;5076021;28;19949;-64
2021/01/20 13:17:18;;;;;;;14.27;13.20;;;;;;;;;;5075882;28;20024;-64
2021/01/20 13:19:45;;;;;;;15.35;14.13;;;;;;;;;;5075994;28;20017;-64
2021/01/20 13:22:12;;;;;;;15.55;13.70;;;;;;;;;;5075969;28;20028;-64
2021/01/20 13:24:39;;;;;;;17.95;13.52;;;;;;;;;;5075864;28;20099;-64